Time;durP1;ratioP1;P1;durP2;ratioP2;P2;SDS_P1;SDS_P2;PMS_P1;PMS_P2;Temp;Humidity;BMP_temperature;BMP_pressure;BME280_temperature;BME280_humidity;BME280_pressure;Samples;Min_cycle;Max_cycle;Signal;HPM_P1;HPM_P2
2021/10/14 00:01:17;;;;;;;28.58;16.08;;;;;;;12.29;100.00;102715.69;5054686;28;20029;-60
2021/10/14 00:03:42;;;;;;;32.15;17.60;;;;;;;12.29;100.00;102715.69;5055147;28;20021;-59
2021/10/14 00:06:09;;;;;;;28.48;15.93;;;;;;;12.37;100.00;102709.34;5054395;28;20028;-54
2021/10/14 00:08:34;;;;;;;29.75;16.45;;;;;;;12.36;100.00;102712.91;5037213;28;20033;-58
2021/10/14 00:11:00;;;;;;;27.98;15.15;;;;;;;12.37;100.00;102699.56;5054571;28;20380;-59
2021/10/14 00:13:25;;;;;;;29.52;16.60;;;;;;;12.37;100.00;102704.03;5054356;28;20037;-59
2021/10/14 00:15:50;;;;;;;27.67;14.95;;;;;;;12.36;100.00;102700.47;5054384;28;20377;-58
2021/10/14 00:18:16;;;;;;;28.80;14.98;;;;;;;12.35;100.00;102701.38;5054389;28;20082;-61
2021/10/14 00:20:41;;;;;;;30.38;15.63;;;;;;;12.36;100.00;102683.69;5053769;28;20032;-59
2021/10/14 00:23:06;;;;;;;27.40;15.27;;;;;;;12.33;100.00;102695.25;5054240;28;20431;-60
2021/10/14 00:25:32;;;;;;;31.42;16.63;;;;;;;12.33;100.00;102684.63;5054694;28;20052;-61
2021/10/14 00:27:57;;;;;;;34.13;16.92;;;;;;;12.33;100.00;102676.66;5053815;28;20499;-58
2021/10/14 00:30:23;;;;;;;35.65;16.08;;;;;;;12.35;100.00;102681.91;5054091;28;20025;-62
2021/10/14 00:32:48;;;;;;;28.27;16.33;;;;;;;12.34;100.00;102674.84;5054388;28;20472;-58
2021/10/14 00:35:13;;;;;;;30.10;16.42;;;;;;;12.33;100.00;102671.34;5054313;28;20028;-61
2021/10/14 00:37:39;;;;;;;33.00;16.73;;;;;;;12.33;100.00;102673.09;5053738;28;20370;-61
2021/10/14 00:40:08;;;;;;;32.13;16.80;;;;;;;12.34;100.00;102666.88;5054029;28;20060;-60
2021/10/14 00:42:33;;;;;;;30.02;16.13;;;;;;;12.33;100.00;102679.31;5052663;28;20056;-59
2021/10/14 00:44:59;;;;;;;31.67;17.30;;;;;;;12.35;100.00;102672.16;5053526;28;20069;-61
2021/10/14 00:47:27;;;;;;;35.55;18.13;;;;;;;12.37;100.00;102667.69;5054282;28;20047;-58
2021/10/14 00:49:54;;;;;;;36.22;17.45;;;;;;;12.37;100.00;102672.16;5053638;28;20023;-60
2021/10/14 00:52:20;;;;;;;36.28;18.00;;;;;;;12.37;100.00;102658.88;5053505;28;20029;-56
2021/10/14 00:54:52;;;;;;;33.20;16.95;;;;;;;12.39;100.00;102657.91;5054107;28;20029;-59
2021/10/14 00:57:19;;;;;;;37.40;18.17;;;;;;;12.42;100.00;102659.63;5053395;28;20029;-58
2021/10/14 00:59:44;;;;;;;39.75;18.15;;;;;;;12.40;100.00;102654.31;5053220;28;20146;-57
2021/10/14 01:02:10;;;;;;;35.42;18.27;;;;;;;12.42;100.00;102651.66;5053466;28;20465;-61
2021/10/14 01:04:36;;;;;;;36.45;17.90;;;;;;;12.44;100.00;102656.03;5053659;28;20033;-61
2021/10/14 01:07:03;;;;;;;34.97;18.33;;;;;;;12.47;100.00;102652.41;5053179;28;20499;-57
2021/10/14 01:09:28;;;;;;;39.65;18.77;;;;;;;12.53;100.00;102652.28;5053099;28;20037;-58
2021/10/14 01:11:56;;;;;;;34.35;18.35;;;;;;;12.55;100.00;102646.91;5053683;28;20040;-58
2021/10/14 01:14:22;;;;;;;35.85;18.13;;;;;;;12.61;100.00;102644.13;5053340;28;20033;-60
2021/10/14 01:16:47;;;;;;;39.42;19.13;;;;;;;12.65;100.00;102644.88;5053242;28;20021;-58
2021/10/14 01:19:14;;;;;;;37.30;17.55;;;;;;;12.69;100.00;102652.75;5053199;28;20461;-58
2021/10/14 01:21:41;;;;;;;38.58;18.10;;;;;;;12.68;100.00;102648.34;5053044;28;20025;-59
2021/10/14 01:24:07;;;;;;;37.05;19.27;;;;;;;12.69;100.00;102646.59;5053377;28;20025;-59
2021/10/14 01:26:33;;;;;;;40.72;18.85;;;;;;;12.70;100.00;102645.66;5053278;28;20024;-61
2021/10/14 01:28:59;;;;;;;33.92;16.80;;;;;;;12.73;100.00;102640.28;5054248;28;20030;-60
2021/10/14 01:31:26;;;;;;;37.90;18.30;;;;;;;12.76;100.00;102634.88;5052319;28;20170;-60
2021/10/14 01:33:52;;;;;;;35.50;18.55;;;;;;;12.77;100.00;102636.63;5053222;28;20029;-59
2021/10/14 01:36:18;;;;;;;35.95;18.00;;;;;;;12.78;100.00;102630.41;5053006;28;20025;-59
2021/10/14 01:38:44;;;;;;;36.38;18.42;;;;;;;12.82;100.00;102639.19;5052930;28;20033;-59
2021/10/14 01:41:09;;;;;;;37.40;18.55;;;;;;;12.79;100.00;102630.34;5052639;28;20592;-60
2021/10/14 01:43:35;;;;;;;37.83;18.65;;;;;;;12.76;100.00;102637.53;5053214;28;20029;-59
2021/10/14 01:46:02;;;;;;;38.78;19.35;;;;;;;12.74;100.00;102634.06;5052340;28;20056;-61
2021/10/14 01:48:30;;;;;;;42.45;19.40;;;;;;;12.73;100.00;102637.63;5052860;28;20090;-60
2021/10/14 01:50:56;;;;;;;41.08;18.35;;;;;;;12.71;100.00;102639.44;5052299;28;20028;-59
2021/10/14 01:53:22;;;;;;;43.42;19.48;;;;;;;12.72;100.00;102635.88;5052534;28;20025;-60
2021/10/14 01:56:06;;;;;;;39.70;19.20;;;;;;;12.70;100.00;102635.03;5052704;28;20372;-62
2021/10/14 01:58:31;;;;;;;38.60;17.65;;;;;;;12.69;100.00;102627.97;5052590;28;20024;-59
2021/10/14 02:00:57;;;;;;;41.88;19.13;;;;;;;12.67;100.00;102628.00;5052051;28;20380;-59
2021/10/14 02:03:22;;;;;;;44.67;20.00;;;;;;;12.68;100.00;102634.19;5052268;28;20028;-61
2021/10/14 02:05:47;;;;;;;39.17;19.10;;;;;;;12.69;100.00;102638.63;5052531;28;20029;-58
2021/10/14 02:08:14;;;;;;;41.80;18.10;;;;;;;12.70;100.00;102625.28;5052583;28;20385;-57
2021/10/14 02:10:40;;;;;;;42.92;19.52;;;;;;;12.69;100.00;102633.28;5052182;28;20021;-57
2021/10/14 02:13:06;;;;;;;42.65;18.77;;;;;;;12.71;100.00;102620.81;5052345;28;20032;-61
2021/10/14 02:15:31;;;;;;;39.90;19.25;;;;;;;12.70;100.00;102624.38;5052428;28;20427;-59
2021/10/14 02:17:58;;;;;;;46.33;20.40;;;;;;;12.67;100.00;102625.34;5052163;28;20075;-60
2021/10/14 02:20:23;;;;;;;49.05;20.08;;;;;;;12.65;100.00;102618.31;5053002;28;20025;-59
2021/10/14 02:22:49;;;;;;;43.10;20.92;;;;;;;12.66;100.00;102623.63;5051941;28;20373;-58
2021/10/14 02:25:16;;;;;;;45.95;20.25;;;;;;;12.62;100.00;102616.59;5052007;28;20028;-61
2021/10/14 02:27:42;;;;;;;44.15;20.08;;;;;;;12.57;100.00;102627.38;5051875;28;20378;-61
2021/10/14 02:30:09;;;;;;;44.28;19.35;;;;;;;12.58;100.00;102617.59;5052416;28;20032;-59
2021/10/14 02:32:35;;;;;;;44.08;19.98;;;;;;;12.58;100.00;102614.94;5051995;28;20075;-61
2021/10/14 02:35:00;;;;;;;47.25;21.42;;;;;;;12.53;100.00;102615.06;5052182;28;20029;-61
2021/10/14 02:37:27;;;;;;;42.08;20.70;;;;;;;12.53;100.00;102615.06;5051934;28;20488;-59
2021/10/14 02:39:52;;;;;;;46.38;22.73;;;;;;;12.50;100.00;102606.31;5052361;28;20056;-58
2021/10/14 02:42:18;;;;;;;46.03;21.98;;;;;;;12.48;100.00;102601.03;5052183;28;20130;-59
2021/10/14 02:44:44;;;;;;;43.20;21.85;;;;;;;12.45;100.00;102603.75;5051933;28;20037;-59
2021/10/14 02:47:09;;;;;;;44.58;20.08;;;;;;;12.48;100.00;102603.69;5051526;28;20739;-57
2021/10/14 02:49:35;;;;;;;41.05;19.52;;;;;;;12.47;100.00;102596.63;5052020;28;20035;-58
2021/10/14 02:52:00;;;;;;;38.92;18.42;;;;;;;12.43;100.00;102585.19;5052185;28;20381;-57
2021/10/14 02:54:26;;;;;;;36.03;17.73;;;;;;;12.44;100.00;102600.22;5052217;28;20029;-59
2021/10/14 02:56:51;;;;;;;40.75;18.42;;;;;;;12.44;100.00;102589.59;5051853;28;20048;-61
2021/10/14 02:59:16;;;;;;;39.95;19.35;;;;;;;12.47;100.00;102593.97;5051684;28;20029;-59
2021/10/14 03:01:41;;;;;;;45.83;19.17;;;;;;;12.46;100.00;102594.88;5052077;28;20025;-60
2021/10/14 03:04:07;;;;;;;36.75;17.90;;;;;;;12.49;100.00;102591.25;5052055;28;20053;-59
2021/10/14 03:06:32;;;;;;;44.50;18.55;;;;;;;12.54;100.00;102589.38;5055517;28;20104;-59
2021/10/14 03:08:57;;;;;;;36.85;17.73;;;;;;;12.53;100.00;102606.22;5055573;28;20110;-60
2021/10/14 03:11:23;;;;;;;43.17;18.40;;;;;;;12.54;100.00;102602.66;5056178;28;20025;-59
2021/10/14 03:13:48;;;;;;;38.50;17.13;;;;;;;12.60;100.00;102599.84;5055892;28;20514;-59
2021/10/14 03:16:13;;;;;;;38.65;17.58;;;;;;;12.61;100.00;102609.56;5055682;28;20032;-62
2021/10/14 03:18:39;;;;;;;39.40;18.27;;;;;;;12.61;100.00;102605.13;5055151;28;20492;-59
2021/10/14 03:21:04;;;;;;;39.13;16.92;;;;;;;12.59;100.00;102601.59;5055321;28;20040;-62
2021/10/14 03:23:30;;;;;;;41.75;18.02;;;;;;;12.58;100.00;102602.53;5055410;28;20036;-60
2021/10/14 03:25:55;;;;;;;39.83;17.80;;;;;;;12.60;100.00;102600.69;5055699;28;20057;-59
2021/10/14 03:28:21;;;;;;;41.10;18.17;;;;;;;12.59;100.00;102604.25;5055193;28;20052;-61
2021/10/14 03:30:46;;;;;;;40.33;17.63;;;;;;;12.64;100.00;102598.00;5055021;28;20104;-59
2021/10/14 03:33:11;;;;;;;37.20;17.25;;;;;;;12.62;100.00;102596.25;5055363;28;20025;-59
2021/10/14 03:35:36;;;;;;;41.10;16.45;;;;;;;12.61;100.00;102601.59;5055093;28;20025;-60
2021/10/14 03:38:02;;;;;;;32.45;14.63;;;;;;;12.61;100.00;102598.94;5054840;28;20469;-59
2021/10/14 03:40:28;;;;;;;29.30;14.52;;;;;;;12.62;100.00;102598.00;5053800;28;20047;-57
2021/10/14 03:42:54;;;;;;;30.58;13.02;;;;;;;12.64;100.00;102595.31;5055138;28;20031;-59
2021/10/14 03:45:19;;;;;;;25.67;11.90;;;;;;;12.66;100.00;102585.50;5054952;28;20045;-60
2021/10/14 03:47:44;;;;;;;23.17;11.10;;;;;;;12.68;100.00;102589.00;5055143;28;20037;-59
2021/10/14 03:50:10;;;;;;;26.77;10.35;;;;;;;12.70;100.00;102584.50;5054073;28;20025;-59
2021/10/14 03:52:36;;;;;;;25.38;10.70;;;;;;;12.70;100.00;102577.44;5054676;28;20083;-59
2021/10/14 03:55:01;;;;;;;22.42;9.60;;;;;;;12.72;100.00;102580.03;5054965;28;20040;-59
2021/10/14 03:57:27;;;;;;;21.05;9.75;;;;;;;12.71;100.00;102584.50;5054955;28;20033;-59
2021/10/14 03:59:52;;;;;;;17.05;8.52;;;;;;;12.73;100.00;102584.44;5054623;28;20111;-61
2021/10/14 04:02:17;;;;;;;19.65;9.50;;;;;;;12.77;100.00;102588.78;5054480;28;20063;-60
2021/10/14 04:04:43;;;;;;;20.02;9.15;;;;;;;12.81;100.00;102594.88;5054306;28;20036;-58
2021/10/14 04:07:08;;;;;;;18.55;8.98;;;;;;;12.81;100.00;102594.88;5054659;28;20447;-61
2021/10/14 04:09:34;;;;;;;28.67;9.38;;;;;;;12.81;100.00;102601.06;5054372;28;20025;-61
2021/10/14 04:11:59;;;;;;;16.77;9.18;;;;;;;12.79;100.00;102600.25;5054846;28;20032;-59
2021/10/14 04:14:24;;;;;;;20.55;8.25;;;;;;;12.78;100.00;102595.84;5054338;28;20049;-58
2021/10/14 04:16:50;;;;;;;18.48;8.88;;;;;;;12.76;100.00;102601.19;5054347;28;20047;-60
2021/10/14 04:19:15;;;;;;;19.55;8.75;;;;;;;12.79;100.00;102601.09;5054324;28;20036;-61
2021/10/14 04:21:40;;;;;;;17.80;8.38;;;;;;;12.81;100.00;102594.88;5053675;28;20453;-60
2021/10/14 04:24:06;;;;;;;18.08;8.68;;;;;;;12.79;100.00;102590.47;5054342;28;20036;-59
2021/10/14 04:26:31;;;;;;;16.83;8.70;;;;;;;12.80;100.00;102602.00;5054334;28;20463;-59
2021/10/14 04:28:56;;;;;;;17.15;9.05;;;;;;;12.78;100.00;102579.88;5054496;28;20083;-59
2021/10/14 04:31:22;;;;;;;18.83;8.75;;;;;;;12.77;100.00;102592.31;5054234;28;20032;-62
2021/10/14 04:33:47;;;;;;;17.48;9.10;;;;;;;12.78;100.00;102583.41;5054126;28;20499;-59
2021/10/14 04:36:13;;;;;;;18.75;9.02;;;;;;;12.79;100.00;102592.28;5053413;28;20032;-60
2021/10/14 04:38:38;;;;;;;18.50;8.88;;;;;;;12.81;100.00;102584.25;5054321;28;20035;-61
2021/10/14 04:41:04;;;;;;;17.70;8.73;;;;;;;12.78;100.00;102587.88;5054110;28;20029;-62
2021/10/14 04:43:29;;;;;;;20.08;9.20;;;;;;;12.76;100.00;102592.34;5054002;28;20069;-59
2021/10/14 04:45:54;;;;;;;20.70;9.60;;;;;;;12.75;100.00;102586.16;5054920;28;20128;-60
2021/10/14 04:48:20;;;;;;;23.25;9.40;;;;;;;12.75;100.00;102580.84;5053586;28;20112;-61
2021/10/14 04:50:45;;;;;;;16.35;8.77;;;;;;;12.80;100.00;102583.38;5053923;28;20071;-61
2021/10/14 04:53:11;;;;;;;24.58;10.05;;;;;;;12.82;100.00;102580.69;5052787;28;20093;-59
2021/10/14 04:55:36;;;;;;;19.27;9.18;;;;;;;12.83;100.00;102582.44;5053246;28;20029;-58
2021/10/14 04:58:02;;;;;;;16.33;8.43;;;;;;;12.84;100.00;102576.19;5053747;28;20024;-59
2021/10/14 05:00:27;;;;;;;16.60;9.38;;;;;;;12.86;100.00;102574.38;5053605;28;20058;-60
2021/10/14 05:02:52;;;;;;;15.93;8.20;;;;;;;12.87;100.00;102579.63;5053261;28;20125;-59
2021/10/14 05:05:18;;;;;;;17.23;8.50;;;;;;;12.88;100.00;102575.22;5053572;28;20541;-59
2021/10/14 05:07:44;;;;;;;12.77;7.80;;;;;;;12.85;100.00;102580.59;5052868;28;20076;-59
2021/10/14 05:10:09;;;;;;;17.08;7.80;;;;;;;12.83;100.00;102580.63;5053337;28;20055;-59
2021/10/14 05:12:35;;;;;;;13.52;6.80;;;;;;;12.83;100.00;102575.31;5053661;28;20028;-59
2021/10/14 05:15:07;;;;;;;15.35;7.70;;;;;;;12.85;100.00;102580.59;5052804;28;20029;-60
2021/10/14 05:17:33;;;;;;;19.65;7.93;;;;;;;12.85;100.00;102575.28;5052817;28;20120;-59
2021/10/14 05:19:59;;;;;;;14.80;7.72;;;;;;;12.82;100.00;102588.66;5053227;28;20060;-59
2021/10/14 05:22:24;;;;;;;12.73;7.13;;;;;;;12.77;100.00;102584.34;5052898;28;20024;-61
2021/10/14 05:24:50;;;;;;;13.77;6.90;;;;;;;12.79;100.00;102582.50;5053147;28;20390;-59
2021/10/14 05:27:15;;;;;;;12.52;7.18;;;;;;;12.79;100.00;102573.66;5052357;28;20565;-58
2021/10/14 05:29:40;;;;;;;15.45;6.75;;;;;;;12.79;100.00;102578.97;5052586;28;20484;-59
2021/10/14 05:32:06;;;;;;;15.75;6.43;;;;;;;12.79;100.00;102584.31;5053122;28;20042;-59
2021/10/14 05:34:31;;;;;;;13.60;6.10;;;;;;;12.81;100.00;102568.31;5052618;28;20028;-61
2021/10/14 05:36:56;;;;;;;14.10;6.05;;;;;;;12.83;100.00;102579.78;5053107;28;20378;-60
2021/10/14 05:39:22;;;;;;;14.15;6.22;;;;;;;12.84;99.99;102577.06;5052099;28;20021;-56
2021/10/14 05:41:47;;;;;;;8.82;5.20;;;;;;;12.86;99.72;102575.22;5053099;28;20028;-59
2021/10/14 05:44:12;;;;;;;9.48;5.32;;;;;;;12.89;99.36;102576.94;5052745;28;20104;-61
2021/10/14 05:46:37;;;;;;;8.68;4.68;;;;;;;12.91;98.44;102580.44;5052004;28;20056;-62
2021/10/14 05:49:03;;;;;;;9.77;5.47;;;;;;;12.95;98.19;102576.78;5052209;28;20029;-59
2021/10/14 05:51:28;;;;;;;9.15;4.68;;;;;;;12.96;97.43;102581.19;5052445;28;20040;-59
2021/10/14 05:53:53;;;;;;;11.13;4.80;;;;;;;12.93;97.54;102566.19;5052383;28;20441;-59
2021/10/14 05:56:19;;;;;;;8.57;4.50;;;;;;;12.98;97.28;102575.81;5052180;28;20029;-61
2021/10/14 05:58:44;;;;;;;9.73;5.07;;;;;;;12.99;97.24;102582.88;5052553;28;20480;-60
2021/10/14 06:01:10;;;;;;;13.82;5.40;;;;;;;12.95;97.10;102571.44;5052010;28;20412;-58
2021/10/14 06:03:36;;;;;;;12.73;4.90;;;;;;;12.98;96.97;102578.47;5052523;28;20071;-60
2021/10/14 06:06:02;;;;;;;18.40;5.47;;;;;;;12.98;96.90;102574.03;5052571;28;20025;-61
2021/10/14 06:08:27;;;;;;;10.30;3.83;;;;;;;13.02;96.59;102572.16;5051966;28;20027;-58
2021/10/14 06:10:52;;;;;;;12.10;4.55;;;;;;;13.01;96.21;102573.09;5051794;28;20056;-59
2021/10/14 06:13:20;;;;;;;10.25;4.53;;;;;;;13.07;95.89;102575.59;5051840;28;20071;-59
2021/10/14 06:15:45;;;;;;;9.10;4.70;;;;;;;13.08;95.73;102564.91;5052578;28;20029;-58
2021/10/14 06:18:10;;;;;;;10.45;4.50;;;;;;;13.11;95.79;102558.63;5052074;28;20406;-59
2021/10/14 06:20:36;;;;;;;9.60;4.32;;;;;;;13.12;95.44;102565.69;5052165;28;20044;-62
2021/10/14 06:23:02;;;;;;;11.70;4.75;;;;;;;13.15;95.18;102559.41;5052017;28;20024;-59
2021/10/14 06:25:28;;;;;;;8.43;4.25;;;;;;;13.16;95.33;102563.78;5051589;28;20032;-59
2021/10/14 06:27:53;;;;;;;10.77;4.95;;;;;;;13.17;95.05;102561.13;5051722;28;20028;-61
2021/10/14 06:30:18;;;;;;;14.27;5.50;;;;;;;13.18;94.91;102556.66;5052019;28;20029;-59
2021/10/14 06:32:44;;;;;;;12.27;5.25;;;;;;;13.20;94.91;102554.84;5051497;28;20029;-59
2021/10/14 06:35:09;;;;;;;9.48;5.35;;;;;;;13.20;94.88;102550.38;5048829;28;20028;-58
2021/10/14 06:37:34;;;;;;;12.85;5.80;;;;;;;13.21;94.89;102562.75;5033109;28;20028;-61
2021/10/14 06:40:00;;;;;;;14.73;5.95;;;;;;;13.23;94.67;102558.25;5050154;28;20029;-59
2021/10/14 06:42:25;;;;;;;11.80;5.78;;;;;;;13.23;94.41;102563.56;5054305;28;20503;-62
2021/10/14 06:44:50;;;;;;;12.75;6.05;;;;;;;13.25;94.55;102552.91;5047449;28;20100;-56
2021/10/14 06:47:16;;;;;;;10.75;6.30;;;;;;;13.28;94.54;102564.31;5047979;28;20052;-59
2021/10/14 06:49:41;;;;;;;15.93;6.50;;;;;;;13.32;94.27;102550.94;5035874;28;20300;-59
2021/10/14 06:52:07;;;;;;;12.35;6.50;;;;;;;13.30;93.98;102547.44;5051297;28;20033;-61
2021/10/14 06:54:32;;;;;;;14.65;6.65;;;;;;;13.30;94.05;102548.34;5055314;28;20031;-59
2021/10/14 06:56:57;;;;;;;15.10;6.43;;;;;;;13.34;93.94;102551.75;5055785;28;20082;-60
2021/10/14 06:59:22;;;;;;;15.05;6.60;;;;;;;13.34;93.61;102562.38;5055571;28;20484;-61
2021/10/14 07:01:48;;;;;;;12.13;5.88;;;;;;;13.35;93.61;102559.72;5041986;28;20102;-58
2021/10/14 07:04:13;;;;;;;11.45;6.15;;;;;;;13.35;93.38;102556.16;5036171;28;20036;-61
2021/10/14 07:06:38;;;;;;;11.82;5.97;;;;;;;13.38;92.98;102561.44;5047776;28;20104;-55
2021/10/14 07:09:04;;;;;;;13.32;6.30;;;;;;;13.40;92.57;102565.81;5054467;28;20020;-60
2021/10/14 07:11:31;;;;;;;13.75;6.40;;;;;;;13.42;92.48;102565.75;5055220;28;20472;-61
2021/10/14 07:13:57;;;;;;;11.63;5.72;;;;;;;13.43;92.50;102565.69;5055300;28;20458;-60
2021/10/14 07:16:23;;;;;;;10.60;5.55;;;;;;;13.44;92.04;102562.13;5055652;28;20100;-59
2021/10/14 07:18:48;;;;;;;11.50;5.20;;;;;;;13.46;92.03;102558.56;5055531;28;20029;-58
2021/10/14 07:21:13;;;;;;;9.05;5.28;;;;;;;13.50;91.34;102562.88;5055439;28;20032;-59
2021/10/14 07:23:39;;;;;;;10.05;5.20;;;;;;;13.50;91.36;102554.88;5055382;28;20029;-57
2021/10/14 07:26:04;;;;;;;13.68;6.15;;;;;;;13.48;91.79;102557.59;5055407;28;20025;-61
2021/10/14 07:28:30;;;;;;;12.00;5.88;;;;;;;13.46;92.08;102562.06;5054993;28;20035;-61
2021/10/14 07:30:55;;;;;;;10.00;5.40;;;;;;;13.51;91.41;102560.16;5055232;28;20431;-60
2021/10/14 07:33:21;;;;;;;13.55;5.95;;;;;;;13.54;91.56;102546.78;5055196;28;20025;-57
2021/10/14 07:35:47;;;;;;;14.05;6.00;;;;;;;13.56;91.38;102557.38;5055332;28;20033;-59
2021/10/14 07:38:12;;;;;;;10.65;5.45;;;;;;;13.53;91.56;102544.13;5054587;28;20108;-61
2021/10/14 07:40:40;;;;;;;12.23;6.30;;;;;;;13.53;91.51;102550.34;5055661;28;20116;-53
2021/10/14 07:43:10;;;;;;;9.80;5.82;;;;;;;13.56;91.47;102549.38;5054992;28;20096;-60
2021/10/14 07:45:35;;;;;;;11.35;5.60;;;;;;;13.56;91.27;102549.38;5054612;28;20048;-60
2021/10/14 07:48:01;;;;;;;11.25;5.93;;;;;;;13.59;91.52;102544.84;5054831;28;20029;-60
2021/10/14 07:50:27;;;;;;;12.07;5.82;;;;;;;13.66;91.14;102545.53;5054101;28;20036;-61
2021/10/14 07:52:52;;;;;;;15.95;6.57;;;;;;;13.70;90.92;102543.63;5054748;28;20056;-60
2021/10/14 07:55:18;;;;;;;10.93;5.70;;;;;;;13.76;90.70;102549.63;5055616;28;20106;-59
2021/10/14 07:57:44;;;;;;;12.23;6.38;;;;;;;13.81;90.47;102552.16;5045616;28;20381;-60
2021/10/14 08:00:11;;;;;;;10.07;6.25;;;;;;;13.92;90.33;102551.81;5041023;28;20032;-55
2021/10/14 08:02:36;;;;;;;14.50;6.35;;;;;;;13.98;89.70;102556.97;5052572;28;20024;-60
2021/10/14 08:05:02;;;;;;;11.98;6.05;;;;;;;14.02;89.65;102560.41;5054221;28;20028;-60
2021/10/14 08:07:28;;;;;;;14.15;6.32;;;;;;;14.08;89.51;102562.88;5054277;28;20059;-60
2021/10/14 08:09:53;;;;;;;10.55;5.75;;;;;;;14.14;88.63;102562.66;5054559;28;20381;-61
2021/10/14 08:12:19;;;;;;;12.85;6.05;;;;;;;14.20;88.10;102559.78;5054455;28;20051;-59
2021/10/14 08:14:45;;;;;;;10.02;5.70;;;;;;;14.33;88.00;102562.06;5054262;28;20465;-61
2021/10/14 08:17:10;;;;;;;13.98;6.30;;;;;;;14.38;87.23;102557.44;5054548;28;20515;-58
2021/10/14 08:19:35;;;;;;;11.68;5.45;;;;;;;14.42;87.22;102561.75;5054741;28;20484;-61
2021/10/14 08:22:00;;;;;;;9.55;5.35;;;;;;;14.47;86.87;102561.59;5054553;28;20044;-60
2021/10/14 08:24:26;;;;;;;9.13;5.68;;;;;;;14.58;86.72;102560.31;5048036;28;20025;-60
2021/10/14 08:26:51;;;;;;;9.18;5.40;;;;;;;14.69;86.55;102565.31;5042909;28;21536;-60
2021/10/14 08:29:16;;;;;;;8.85;4.97;;;;;;;14.89;84.09;102561.06;5045542;28;20037;-61
2021/10/14 08:31:42;;;;;;;9.63;5.10;;;;;;;15.02;82.24;102551.69;5040009;28;21261;-57
2021/10/14 08:34:08;;;;;;;9.32;5.00;;;;;;;15.04;82.19;102554.31;5045959;28;20535;-59
2021/10/14 08:36:33;;;;;;;9.13;4.80;;;;;;;15.01;82.15;102549.09;5034837;28;20026;-55
2021/10/14 08:38:58;;;;;;;10.32;4.75;;;;;;;15.00;81.67;102550.00;5033864;28;20030;-59
2021/10/14 08:41:24;;;;;;;9.20;4.63;;;;;;;15.05;81.54;102551.59;5045785;28;20021;-61
2021/10/14 08:43:50;;;;;;;11.75;4.90;;;;;;;15.08;83.01;102546.13;5047970;28;20052;-61
2021/10/14 08:46:16;;;;;;;8.10;4.65;;;;;;;15.20;82.65;102554.63;5052558;28;20087;-59
2021/10/14 08:48:42;;;;;;;11.45;5.15;;;;;;;15.30;81.56;102541.81;5049864;28;20029;-59
2021/10/14 08:51:07;;;;;;;6.97;4.38;;;;;;;15.22;80.89;102555.44;5053110;28;20027;-60
2021/10/14 08:53:32;;;;;;;7.07;4.60;;;;;;;15.20;80.68;102546.63;5052094;28;20112;-60
2021/10/14 08:55:58;;;;;;;9.13;4.25;;;;;;;15.16;81.75;102553.84;5053058;28;20103;-61
2021/10/14 08:58:23;;;;;;;9.18;4.40;;;;;;;15.18;81.83;102553.78;5049115;28;21235;-60
2021/10/14 09:01:08;;;;;;;10.60;4.20;;;;;;;15.26;81.91;102559.72;5046726;28;20411;-57
2021/10/14 09:03:36;;;;;;;7.60;4.20;;;;;;;15.44;80.24;102560.84;5050775;28;20059;-58
2021/10/14 09:06:07;;;;;;;7.28;3.95;;;;;;;15.50;81.11;102551.72;5053019;28;20021;-58
2021/10/14 09:08:41;;;;;;;7.75;3.97;;;;;;;15.33;80.69;102549.69;5051725;28;20033;-61
2021/10/14 09:11:12;;;;;;;10.30;4.10;;;;;;;15.27;80.63;102563.25;5046846;28;20040;-61
2021/10/14 09:13:51;;;;;;;9.20;4.30;;;;;;;15.23;80.98;102551.84;5051140;28;20024;-58
2021/10/14 09:16:20;;;;;;;6.68;3.97;;;;;;;15.13;80.66;102553.09;5045951;28;20021;-60
2021/10/14 09:18:47;;;;;;;7.38;3.92;;;;;;;15.08;80.66;102562.16;5052344;28;20040;-61
2021/10/14 09:21:25;;;;;;;6.50;3.30;;;;;;;14.99;80.07;102564.28;5045320;28;20029;-59
2021/10/14 09:24:00;;;;;;;5.88;3.20;;;;;;;14.98;80.06;102565.22;5052518;28;20140;-60
2021/10/14 09:26:33;;;;;;;7.72;3.28;;;;;;;15.02;79.48;102557.03;5049768;28;20036;-61
2021/10/14 09:29:06;;;;;;;7.63;2.90;;;;;;;15.05;79.22;102558.72;5048699;28;20033;-59
2021/10/14 09:31:46;;;;;;;8.35;3.85;;;;;;;14.99;80.16;102549.16;5042650;28;20200;-59
2021/10/14 09:34:33;;;;;;;7.70;3.30;;;;;;;15.59;80.33;102551.38;5049335;28;20466;-58
2021/10/14 09:37:20;;;;;;;9.27;3.25;;;;;;;17.15;72.41;102549.41;5048558;28;20033;-60
2021/10/14 09:40:07;;;;;;;6.13;3.30;;;;;;;18.57;67.93;102544.38;5045315;28;20041;-60
2021/10/14 09:43:00;;;;;;;7.60;3.22;;;;;;;19.81;62.25;102533.28;5049759;28;20064;-59
2021/10/14 09:45:30;;;;;;;7.47;2.70;;;;;;;20.04;60.07;102536.47;5046927;28;20025;-59
2021/10/14 09:48:04;;;;;;;5.95;3.22;;;;;;;18.89;62.46;102548.09;5048216;28;20484;-60
2021/10/14 09:50:36;;;;;;;6.82;3.22;;;;;;;18.22;64.17;102539.03;5049558;28;20029;-57
2021/10/14 09:53:04;;;;;;;6.40;3.00;;;;;;;17.83;65.42;102538.22;5048480;28;20033;-60
2021/10/14 09:55:29;;;;;;;9.82;3.10;;;;;;;17.62;65.92;102543.66;5046837;28;20033;-59
2021/10/14 09:57:59;;;;;;;8.35;2.92;;;;;;;17.24;68.08;102545.44;5046972;28;20448;-59
2021/10/14 10:00:26;;;;;;;5.72;3.00;;;;;;;16.95;69.10;102536.94;5047364;28;20108;-60
2021/10/14 10:02:53;;;;;;;5.28;3.13;;;;;;;17.34;69.21;102538.69;5046978;28;20029;-59
2021/10/14 10:05:18;;;;;;;7.32;3.40;;;;;;;17.89;66.53;102531.66;5048058;28;20029;-61
2021/10/14 10:07:47;;;;;;;7.45;3.50;;;;;;;17.92;66.24;102531.53;5046162;28;20538;-62
2021/10/14 10:10:17;;;;;;;8.38;3.10;;;;;;;18.03;65.90;102531.91;5047288;28;20032;-61
2021/10/14 10:12:44;;;;;;;10.23;3.80;;;;;;;18.14;65.13;102510.78;5048617;28;20029;-61
2021/10/14 10:15:10;;;;;;;7.15;3.53;;;;;;;18.09;64.83;102525.38;5048441;28;20056;-57
2021/10/14 10:17:41;;;;;;;7.10;3.42;;;;;;;18.17;66.23;102524.03;5049149;28;20385;-56
2021/10/14 10:20:08;;;;;;;4.78;3.10;;;;;;;17.93;65.57;102518.09;5048635;28;20100;-61
2021/10/14 10:22:33;;;;;;;6.20;3.40;;;;;;;18.32;64.96;102524.19;5047656;28;20137;-60
2021/10/14 10:25:20;;;;;;;8.00;3.22;;;;;;;18.47;64.14;102518.03;5048552;28;20451;-57
2021/10/14 10:27:46;;;;;;;7.38;3.38;;;;;;;18.33;65.58;102515.22;5048628;28;20043;-61
2021/10/14 10:30:29;;;;;;;8.27;3.70;;;;;;;18.10;63.92;102513.69;5047268;28;20481;-60
2021/10/14 10:32:55;;;;;;;8.85;3.65;;;;;;;17.88;64.93;102503.13;5030073;28;20497;-60
2021/10/14 10:35:42;;;;;;;6.97;3.63;;;;;;;17.60;65.60;102510.69;5033197;28;20092;-60
2021/10/14 10:38:18;;;;;;;6.53;3.58;;;;;;;17.38;66.92;102501.94;5031509;28;20477;-58
2021/10/14 10:40:47;;;;;;;7.35;4.18;;;;;;;17.06;67.72;102505.19;5035191;28;20496;-60
2021/10/14 10:43:16;;;;;;;6.72;4.18;;;;;;;16.70;69.94;102505.84;5034903;28;20034;-58
2021/10/14 10:45:42;;;;;;;7.20;4.28;;;;;;;16.51;69.57;102513.84;5034779;28;20033;-61
2021/10/14 10:48:08;;;;;;;7.22;3.83;;;;;;;16.44;70.20;102501.66;5035028;28;20389;-58
2021/10/14 10:50:33;;;;;;;9.90;4.55;;;;;;;16.31;72.50;102512.03;5034842;28;20064;-59
2021/10/14 10:53:04;;;;;;;10.07;4.17;;;;;;;16.36;72.38;102508.19;5034527;28;20040;-61
2021/10/14 10:55:42;;;;;;;7.05;3.85;;;;;;;16.46;70.75;102502.44;5033477;28;20273;-62
2021/10/14 10:58:09;;;;;;;9.73;4.90;;;;;;;16.58;70.35;102509.09;5033935;28;20108;-58
2021/10/14 11:00:40;;;;;;;11.15;4.60;;;;;;;17.00;69.80;102505.47;5033883;28;20025;-58
2021/10/14 11:03:20;;;;;;;7.45;3.75;;;;;;;17.60;67.59;102502.66;5025967;28;20049;-59
2021/10/14 11:05:46;;;;;;;7.93;4.43;;;;;;;17.78;65.58;102484.81;5019478;28;20032;-61
2021/10/14 11:08:17;;;;;;;10.27;4.15;;;;;;;17.37;67.22;102495.72;5034272;28;20026;-60
2021/10/14 11:10:45;;;;;;;11.38;4.30;;;;;;;16.98;68.01;102491.28;5034254;28;20034;-59